Worthington, MN

8:50 PM CDT on March 26, 2017 (GMT -0500)
Worthington Municipal

Weather History for KOTG - February, 2014

Change the Weather History Date:

Monday, February 17, 2014

  Actual Average Record
Temperature  
Mean Temperature 27 °F -  
Max Temperature 35 °F 28 °F 62 °F (1981)
Min Temperature 19 °F 15 °F -27 °F (1979)
Degree Days  
Heating Degree Days 38    
Moisture  
Dew Point 22 °F    
Average Humidity 72    
Maximum Humidity 86    
Minimum Humidity 56    
Precipitation  
Precipitation 0.00 in - - ()
Sea Level Pressure  
Sea Level Pressure 29.74 in    
Wind  
Wind Speed 21 mph (SW)    
Max Wind Speed 32 mph    
Max Gust Speed 38 mph    
Visibility 8 miles    
Events      
Averages and records for this station are not official NWS values.
T = Trace of Precipitation, MM = Missing Value Source: NWS Daily Summary

Daily Weather History Graph

Daily Weather History Graph

Search for Another Location

Airport or City:

Trip Planner

Search our weather history database for the weather conditions in past years. The results will help you decide how hot, cold, wet, or windy it might be!

Date:

Astronomy

Feb. 17, 2014 Rise Set
Actual Time 7:17 AM CST 5:55 PM CST
Civil Twilight 6:48 AM CST 6:24 PM CST
Nautical Twilight 6:15 AM CST 6:58 PM CST
Astronomical Twilight 5:41 AM CST 7:31 PM CST
Moon 8:58 PM CST (2/17) 8:12 AM CST (2/17)
Length of Visible Light 11h 36m
Length of Day
10h 37m
Waning Gibbous, 93% of the Moon is Illuminated
Feb 17
Waning Gibbous
Feb 22
Last Quarter
Mar 1
New
Mar 8
First Quarter
Mar 16
Full

Hourly Weather History & Observations

Time (CST) Temp. Windchill Dew Point Humidity Pressure Visibility Wind Dir Wind Speed Gust Speed Precip Events Conditions
12:15 AM 19.4 °F 1.4 °F 14.0 °F 80% 29.76 in 7.0 mi SSE 26.5 mph 32.2 mph N/A   Scattered Clouds
12:35 AM 19.4 °F 2.1 °F 14.0 °F 80% 29.74 in 7.0 mi SSE 24.2 mph 31.1 mph N/A   Scattered Clouds
12:55 AM 21.2 °F 5.2 °F 14.0 °F 74% 29.74 in 7.0 mi SSE 21.9 mph 31.1 mph N/A   Scattered Clouds
1:15 AM 21.2 °F 5.2 °F 15.8 °F 80% 29.74 in 7.0 mi SSE 21.9 mph 28.8 mph N/A   Scattered Clouds
1:35 AM 21.2 °F 4.2 °F 15.8 °F 80% 29.73 in 5.0 mi SSE 25.3 mph 33.4 mph N/A   Mostly Cloudy
1:55 AM 21.2 °F 6.0 °F 15.8 °F 80% 29.73 in 6.0 mi SSE 19.6 mph 28.8 mph N/A   Overcast
2:15 AM 21.2 °F 5.6 °F 17.6 °F 86% 29.72 in 5.0 mi SSE 20.7 mph 27.6 mph N/A   Overcast
2:35 AM 23.0 °F 8.7 °F 17.6 °F 80% 29.73 in 4.0 mi SSE 18.4 mph 28.8 mph N/A   Overcast
2:55 AM 23.0 °F 8.0 °F 17.6 °F 80% 29.71 in 1.8 mi South 20.7 mph 27.6 mph N/A   Overcast
3:15 AM 24.8 °F 10.3 °F 19.4 °F 80% 29.70 in 1.8 mi South 20.7 mph 25.3 mph N/A   Overcast
3:35 AM 24.8 °F 10.7 °F 19.4 °F 80% 29.69 in 1.5 mi South 19.6 mph - N/A   Overcast
3:55 AM 26.6 °F 11.4 °F 21.2 °F 80% 29.68 in 0.5 mi South 25.3 mph 31.1 mph N/A   Mostly Cloudy
4:15 AM 26.6 °F 10.8 °F 21.2 °F 80% 29.67 in 0.8 mi South 27.6 mph 33.4 mph N/A   Unknown
4:35 AM 24.8 °F 9.6 °F 19.4 °F 80% 29.66 in 0.8 mi South 23.0 mph - N/A   Unknown
4:55 AM 24.8 °F 9.6 °F 19.4 °F 80% 29.67 in 1.2 mi South 23.0 mph 28.8 mph N/A   Clear
5:15 AM 26.6 °F 12.0 °F 21.2 °F 80% 29.67 in 1.8 mi South 23.0 mph 29.9 mph N/A   Clear
5:35 AM 26.6 °F 12.0 °F 21.2 °F 80% 29.67 in 2.5 mi SSW 23.0 mph 27.6 mph N/A   Scattered Clouds
5:55 AM 28.4 °F 14.4 °F 23.0 °F 80% 29.68 in 2.5 mi SW 23.0 mph 28.8 mph N/A   Overcast
6:15 AM 28.4 °F 15.4 °F 24.8 °F 86% 29.68 in 2.5 mi WSW 19.6 mph 29.9 mph N/A   Overcast
6:35 AM 28.4 °F 14.4 °F 24.8 °F 86% 29.68 in 3.0 mi West 23.0 mph - N/A   Overcast
6:55 AM 28.4 °F 13.5 °F 23.0 °F 80% 29.67 in 3.0 mi West 26.5 mph 32.2 mph N/A   Overcast
7:15 AM 26.6 °F 12.7 °F 21.2 °F 80% 29.68 in 5.0 mi West 20.7 mph - N/A   Overcast
7:35 AM 28.4 °F 15.1 °F 23.0 °F 80% 29.68 in 9.0 mi West 20.7 mph - N/A   Mostly Cloudy
7:55 AM 28.4 °F 15.1 °F 23.0 °F 80% 29.70 in 5.0 mi West 20.7 mph - N/A   Partly Cloudy
8:15 AM 28.4 °F 14.4 °F 23.0 °F 80% 29.71 in 4.0 mi West 23.0 mph 28.8 mph N/A   Clear
8:35 AM 28.4 °F 15.8 °F 21.2 °F 74% 29.72 in 7.0 mi West 18.4 mph - N/A   Partly Cloudy
8:55 AM 28.4 °F 15.8 °F 21.2 °F 74% 29.72 in 8.0 mi West 18.4 mph - N/A   Partly Cloudy
9:15 AM 28.4 °F 15.8 °F 21.2 °F 74% 29.72 in 9.0 mi West 18.4 mph - N/A   Clear
9:35 AM 28.4 °F 15.1 °F 21.2 °F 74% 29.72 in 8.0 mi West 20.7 mph - N/A   Clear
9:55 AM 28.4 °F 15.1 °F 21.2 °F 74% 29.73 in 10.0 mi West 20.7 mph - N/A   Clear
10:15 AM 28.4 °F 15.4 °F 23.0 °F 80% 29.73 in 10.0 mi West 19.6 mph - N/A   Clear
10:35 AM 30.2 °F 17.8 °F 23.0 °F 75% 29.74 in 8.0 mi West 19.6 mph 27.6 mph N/A   Clear
10:55 AM 30.2 °F 17.8 °F 24.8 °F 80% 29.75 in 10.0 mi West 19.6 mph - N/A   Clear
11:15 AM 33.8 °F 21.3 °F 24.8 °F 70% 29.75 in 10.0 mi West 24.2 mph 28.8 mph N/A   Mostly Cloudy
11:35 AM 33.8 °F 22.2 °F 24.8 °F 70% 29.75 in 10.0 mi West 20.7 mph - N/A   Mostly Cloudy
11:55 AM 33.8 °F 21.6 °F 24.8 °F 70% 29.76 in 10.0 mi West 23.0 mph - N/A   Clear
12:15 PM 33.8 °F 21.3 °F 24.8 °F 70% 29.75 in 10.0 mi West 24.2 mph 31.1 mph N/A   Clear
12:35 PM 33.8 °F 21.3 °F 24.8 °F 70% 29.75 in 10.0 mi West 24.2 mph 31.1 mph N/A   Clear
12:55 PM 35.6 °F 23.0 °F 24.8 °F 65% 29.74 in 10.0 mi West 27.6 mph 31.1 mph N/A   Clear
1:15 PM 35.6 °F 23.0 °F 24.8 °F 65% 29.73 in 10.0 mi West 27.6 mph 34.5 mph N/A   Clear
1:35 PM 35.6 °F 22.5 °F 24.8 °F 65% 29.73 in 10.0 mi West 29.9 mph 34.5 mph N/A   Clear
1:55 PM 35.6 °F 22.3 °F 24.8 °F 65% 29.74 in 10.0 mi West 31.1 mph 36.8 mph N/A   Clear
2:15 PM 35.6 °F 22.1 °F 24.8 °F 65% 29.74 in 8.0 mi West 32.2 mph 38.0 mph N/A   Clear
2:35 PM 35.6 °F 22.7 °F 24.8 °F 65% 29.75 in 10.0 mi West 28.8 mph 34.5 mph N/A   Clear
2:55 PM 35.6 °F 23.7 °F 24.8 °F 65% 29.76 in 10.0 mi West 24.2 mph - N/A   Clear
3:15 PM 35.6 °F 23.7 °F 24.8 °F 65% 29.76 in 10.0 mi West 24.2 mph 29.9 mph N/A   Clear
3:35 PM 35.6 °F 23.7 °F 24.8 °F 65% 29.76 in 10.0 mi West 24.2 mph - N/A   Clear
3:55 PM 35.6 °F 24.0 °F 24.8 °F 65% 29.77 in 10.0 mi West 23.0 mph - N/A   Clear
4:15 PM 35.6 °F 24.0 °F 24.8 °F 65% 29.78 in 10.0 mi West 23.0 mph 28.8 mph N/A   Clear
4:35 PM 35.6 °F 25.2 °F 24.8 °F 65% 29.78 in 10.0 mi West 18.4 mph - N/A   Clear
4:55 PM 35.6 °F 26.2 °F 24.8 °F 65% 29.79 in 10.0 mi West 15.0 mph - N/A   Clear
5:15 PM 33.8 °F 24.8 °F 24.8 °F 70% 29.79 in 10.0 mi West 12.7 mph - N/A   Clear
5:35 PM 33.8 °F 25.8 °F 24.8 °F 70% 29.79 in 10.0 mi West 10.4 mph - N/A   Clear
5:55 PM 33.8 °F 24.3 °F 23.0 °F 65% 29.80 in 10.0 mi West 13.8 mph - N/A   Clear
6:15 PM 32.0 °F 22.5 °F 23.0 °F 69% 29.80 in 10.0 mi WSW 12.7 mph - N/A   Clear
6:35 PM 32.0 °F 23.0 °F 21.2 °F 64% 29.81 in 10.0 mi West 11.5 mph - N/A   Clear
6:55 PM 28.4 °F 19.1 °F 21.2 °F 74% 29.81 in 10.0 mi WSW 10.4 mph - N/A   Clear
7:15 PM 30.2 °F 20.8 °F 23.0 °F 75% 29.81 in 10.0 mi WSW 11.5 mph - N/A   Clear
7:35 PM 32.0 °F 24.2 °F 23.0 °F 69% 29.81 in 10.0 mi WSW 9.2 mph - N/A   Clear
7:55 PM 30.2 °F 22.6 °F 21.2 °F 69% 29.79 in 10.0 mi SW 8.1 mph - N/A   Clear
8:15 PM 28.4 °F 18.5 °F 21.2 °F 74% 29.79 in 10.0 mi SSW 11.5 mph - N/A   Clear
8:35 PM 28.4 °F 20.4 °F 21.2 °F 74% 29.79 in 10.0 mi SSW 8.1 mph - N/A   Clear
8:55 PM 28.4 °F 19.7 °F 19.4 °F 69% 29.78 in 10.0 mi South 9.2 mph - N/A   Clear
9:15 PM 28.4 °F 20.4 °F 19.4 °F 69% 29.78 in 10.0 mi SSW 8.1 mph - N/A   Clear
9:35 PM 26.6 °F 17.5 °F 17.6 °F 69% 29.77 in 10.0 mi SSW 9.2 mph - N/A   Clear
9:55 PM 28.4 °F 18.0 °F 19.4 °F 69% 29.77 in 10.0 mi SSW 12.7 mph - N/A   Clear
10:15 PM 32.0 °F 21.6 °F 21.2 °F 64% 29.77 in 10.0 mi SSW 15.0 mph - N/A   Clear
10:35 PM 33.8 °F 25.3 °F 21.2 °F 60% 29.77 in 10.0 mi SSW 11.5 mph - N/A   Clear
10:55 PM 35.6 °F 27.1 °F 21.2 °F 56% 29.77 in 10.0 mi SSW 12.7 mph - N/A   Clear
11:15 PM 33.8 °F 23.9 °F 21.2 °F 60% 29.76 in 10.0 mi SSW 15.0 mph - N/A   Clear
11:35 PM 35.6 °F 26.2 °F 21.2 °F 56% 29.75 in 10.0 mi South 15.0 mph - N/A   Clear
11:55 PM 33.8 °F 24.3 °F 21.2 °F 60% 29.74 in 10.0 mi South 13.8 mph - N/A   Clear